Men: 0-15 16-19 20-24 25-29 30-34 35-39 40-44 45-49 50-54 55-59 60-64 65-69 70-99
Women: 0-15 16-19 20-24 25-29 30-34 35-39 40-44 45-49 50-54 55-59 60-64 65-69 70-99

Half Marathon

Male Open Winners

Place Name City Bib No Age Overall Total Time
1 Fredison Costa Kissimmee FL 1 37 1 1:06:54.3
2 Troy Clark Howey in the Hills FL 1926 19 2 1:15:06.0
3 Lee Shaw Livonia MI 2464 40 3 1:16:32.9
Top

Male Masters Winners

Place Name City Bib No Age Overall Total Time
1 Todd Lytle Minneola FL 2240 45 6 1:19:25.2
Top

15 & Under

Place Name City Bib No Age Overall Total Time
1 Ethan Edwards Blacksburg VA 2009 15 25 1:31:29.3
2 Conor Donovan Mount Dora FL 1992 14 505 2:32:18.2
Top

Male 16 to 19

Place Name City Bib No Age Overall Total Time
1 Nick Lenssen Oviedo FL 2220 19 19 1:29:36.8
2 Daniel Ambrose Howey In The Hills FL 1819 16 23 1:31:15.6
3 Anthony Rufrano Winter Park FL 2419 16 35 1:34:18.3
4 Michael Havel Winter springs FL 2106 19 95 1:45:50.3
5 Matthew Havel Winter springs FL 2105 16 167 1:55:00.4
6 Keith Herrin Houston TX 2115 18 485 2:30:14.1
7 Jake Uttich Oviedo FL 2545 18 586 2:46:36.6
8 Brandon Martin Metamora IL 2252 16 593 2:47:41.7
Top

Male 20 to 24

Place Name City Bib No Age Overall Total Time
1 Carlos Soto debary FL 2483 21 5 1:17:59.4
2 Blaine Ramsdell Boulder CO 2389 21 8 1:22:21.8
3 Tyler Gregory DELAFIELD WI 2080 22 18 1:29:25.1
4 Chris Whitehead Winter Garden FL 2582 22 90 1:44:59.8
5 Michael Irene fort lauderdale FL 2141 23 343 2:15:09.4
6 Mario Kurtz Lady Lake FL 1260 24 552 2:39:36.9
Top

Male 25 to 29

Place Name City Bib No Age Overall Total Time
1 Seth Funderburg orlando FL 2048 25 17 1:28:04.4
2 Adrian Estrada PLYMOUTH MN 2017 26 42 1:37:16.0
3 Jason Luton winter parj FL 2237 28 51 1:38:38.7
4 Michael Suver Tavares FL 2514 28 55 1:39:27.5
5 Sam Dreilinger Winter park FL 1999 27 99 1:46:03.2
6 Greg Golden Winter Park FL 2064 27 155 1:54:13.7
7 Dan Niecestro Celebration FL 2310 27 162 1:54:47.8
8 Alex Wagner St. Cloud FL 2564 27 200 1:58:11.4
9 James Miller Ormond Beach FL 2282 25 204 1:58:32.5
10 Alonzo Sweet Port Orange FL 2516 27 239 2:01:55.4
11 Christopher Gannon Orlando FL 2051 27 281 2:07:59.5
12 Travis Cook Daytona Beach Shores FL 1937 29 317 2:12:03.5
13 Justin Seabolt Kissimmee FL 2454 29 368 2:18:21.9
14 Gabriel Cirilo Woking 1923 27 370 2:18:27.6
15 Alexander Hofmeister Orlando FL 2129 28 512 2:33:00.4
16 Thomas Curry Orlando FL 2626 27 620 2:53:38.6
17 Bradley Powell Restoule ON 2376 28 648 3:03:19.9
18 Christopher Jimenez Miami FL 2151 28 700 4:00:01.9
Top

Male 30 to 34

Place Name City Bib No Age Overall Total Time
1 Marcus Dasilva Orlando FL 1964 34 15 1:26:56.8
2 Jimmy Spears Grand island FL 2487 34 31 1:33:34.3
3 Jason Buckner San Francisco CA 1891 34 48 1:38:11.3
4 Ji Wang Gainesville FL 2569 30 52 1:38:46.6
5 Daniel Gordon Altamonte Springs FL 2070 32 63 1:40:09.5
6 Kyle Treen Sarasota FL 2534 31 70 1:41:12.8
7 Jordan Dalton Sanford FL 1962 30 73 1:42:10.4
8 Drew Schiavone Lexington KY 2438 30 84 1:44:19.9
9 Francisco Jimenez Gainesville FL 2153 32 89 1:44:55.1
10 Babbino Chuck Eustis FL 1066 31 97 1:45:53.7
11 Erik Wood Mt. Dora FL 2600 33 105 1:46:54.5
12 Michael Partridge Orlando FL 2337 31 139 1:51:35.5
13 Rob Pellosie mount dora FL 2346 34 141 1:51:57.0
14 Derek Schorsch Orlando FL 2444 34 142 1:52:20.9
15 Nathan Puls Kansas City MO 2380 30 160 1:54:45.0
16 Michael Pezold New York NY 2362 33 180 1:56:21.5
17 Robert Kuleza ocala FL 2198 32 303 2:10:38.6
18 Lucas Adams Sorrento FL 1806 32 311 2:11:31.1
19 Michael Tempkins Altamonte Springs FL 2524 33 312 2:11:37.9
20 Orlan Romm Casselberry FL 2416 32 339 2:14:51.6
21 Ezekiel Clark Orange city FL 1927 31 352 2:16:17.1
22 Thomas Biance Tallahassee FL 1856 34 362 2:17:47.3
23 David Buckalew Orlando FL 1890 32 375 2:18:40.5
24 Roberto Cirilo Canonsburg PA 1922 32 386 2:20:00.8
25 Thaddeus Callahan Titusville FL 1897 33 433 2:25:10.8
26 Joshua Olcott Lady Lake FL 2320 32 549 2:39:09.1
27 James Pierce eagle lake FL 2366 33 625 2:55:20.0
28 Stephen Frisby Montgomery AL 2046 31 654 3:05:47.3
Top

Male 35 to 39

Place Name City Bib No Age Overall Total Time
1 Benjamin Cowan Boulder CO 1949 36 4 1:16:55.6
2 Orinthal Striggles West Columbia SC 2503 38 7 1:19:36.5
3 Tony Segreto Mount Dora FL 2455 35 10 1:23:37.6
4 Austin Hardy Sorrento FL 2099 35 11 1:23:47.7
5 Anthony Aseere Clermont FL 1825 38 20 1:29:51.2
6 Jonathan Albert Clermont FL 1810 37 30 1:33:23.1
7 Walter Perryman Dubai FL 2357 37 33 1:33:44.3
8 Chad Mucheck Longwood FL 2293 35 36 1:34:25.8
9 Andrew Martin Metamora IL 2251 36 37 1:34:32.2
10 Steven Block Longwood FL 1865 37 44 1:37:38.4
11 Don Hoag Orlando FL 2124 37 50 1:38:25.9
12 Philip Geha Lake Mary FL 2055 38 74 1:42:12.0
13 Chang Choe Boca Raton FL 1275 38 75 1:42:23.0
14 Alejandro Pinedo Longwood FL 2369 35 79 1:43:09.0
15 Todd Berk Winter Springs FL 1853 38 86 1:44:29.0
16 Simon Brooks Longwood FL 1880 37 113 1:48:04.8
17 Charles Cerney Umatilla FL 1913 39 128 1:50:00.2
18 Ben Pierce 268 39 145 1:53:01.8
19 David Stokes Winter Garden FL 2497 35 150 1:53:26.0
20 Michael Schoenbrod Port Orange FL 2443 36 214 1:59:17.1
21 Martin Srefanka Longwood FL 2491 38 217 1:59:41.3
22 Vladimir Mazek ORLANDO FL 2259 36 264 2:05:50.1
23 Dan Smith Jacksonville FL 2477 37 274 2:06:54.1
24 Steven Saleh Orlando FL 2428 37 300 2:10:24.3
25 Juan Juncos Orlando FL 2167 37 305 2:10:57.4
26 John-Michael Le Baron Altamonte Springs FL 2216 39 313 2:11:46.6
27 Fred Mcree Holly Hill FL 2274 36 355 2:16:45.4
28 Robert Scott Charlotte NC 2449 37 385 2:19:33.7
29 Brian Epstein Boynton Beach FL 2016 36 418 2:23:10.6
30 Ty Stalnaker Longwood FL 2636 36 483 2:29:59.4
31 Scott Ward Altamonte Springs FL 2571 39 502 2:32:00.7
32 Matthew Robinson Ocala FL 2410 35 520 2:34:16.8
33 Roy Cooling Davenport FL 1941 39 541 2:37:15.3
34 Eric Szymanski Winter Garden FL 2519 38 556 2:40:36.6
35 Jimmy Garza Orlando FL 2053 37 580 2:45:18.5
36 Keith Pearlman Leesburg FL 2342 39 678 3:27:33.0
Top

Male 40 to 44

Place Name City Bib No Age Overall Total Time
1 Charlie St.Cyr-Paul orlando FL 2492 43 14 1:26:49.6
2 Anthony M Mominee Ii Dayton OH 2288 40 26 1:32:38.4
3 Joe Palmer Tampa FL 2330 41 29 1:33:10.0
4 Joel Fenlason Patrick AFB FL 2022 41 34 1:33:55.3
5 Roberto D'Uffizi ROME 2001 44 46 1:37:54.5
6 Vincent Crossan Oviedo FL 1955 43 57 1:39:57.7
7 Lushantha Gunasekera Clermont FL 2086 41 62 1:40:09.3
8 Gregory Gordon Windermere FL 2068 44 65 1:40:25.9
9 Atsushi Hiruta Orlando FL 2123 42 66 1:40:29.9
10 Michael Duffield sorrento FL 2000 41 67 1:40:32.2
11 Danny Johnson Lake Mary FL 319 43 76 1:42:33.3
12 Michael Jacob Winter Garden FL 2144 40 85 1:44:23.9
13 Steven Meints Orlando FL 2630 44 108 1:47:24.2
14 Kevin Foy Inverness FL 2043 43 121 1:49:08.2
15 Steven De Cocq Van Delwijne Zuidland ZH 1968 43 135 1:51:13.3
16 David Mann Deland FL 2245 41 136 1:51:19.1
17 Mike Brown 276 44 143 1:52:41.5
18 Michael Hadrisch Potsdam BB 2090 40 144 1:52:42.7
19 Kerfala Fofana Lake Mary FL 2035 44 163 1:54:51.7
20 Greg Wiseman Wesley Chapels FL 2599 43 177 1:55:48.3
21 Kevin Clunie SHAKER HEIGHTS OH 1930 41 182 1:56:27.3
22 Jim Cembrook Lake Mary FL 1912 42 197 1:57:47.6
23 Shawn Wilker Mount Dora FL 2591 41 224 2:00:14.9
24 Theodossis Zacharis NSB FL 159 44 225 2:00:42.0
25 Alfredo Navales Orlando FL 2637 44 235 2:01:26.8
26 Joe Runnels Mount Dora FL 2422 40 279 2:07:33.5
27 Tim Herrin Houston TX 2116 44 284 2:08:20.5
28 Stephen Mccosker Ocoee FL 2266 44 288 2:08:32.7
29 Eddie Orobitg lady lake FL 2327 44 290 2:09:03.6
30 Shayne Boyer Deland FL 1875 41 354 2:16:36.2
31 Tony Young edgewater FL 2607 44 363 2:17:47.9
32 Andrew Fisher Orlando FL 2030 43 388 2:20:08.3
33 Chris Cook Tavares FL 1936 41 394 2:20:39.8
34 Jim Rufrano Winter Park FL 2420 41 423 2:23:39.2
35 Robert Durant Mount Dora FL 2003 44 434 2:25:13.6
36 Ed Cloak Chuluota FL 1929 40 453 2:26:57.8
37 Jeff Junk Altamonte Springs FL 2168 44 496 2:31:39.9
38 Arnoldo Sanchez LIBERIA 2430 44 501 2:31:53.7
39 Ryan Donovan Mount Dora FL 1993 44 506 2:32:20.9
40 James Dougherty Carrboro NC 1996 42 599 2:49:48.3
41 Joey Snowden Daytona beach FL 2481 42 602 2:50:27.5
Top

Male 45 to 49

Place Name City Bib No Age Overall Total Time
1 Kenyon Congdon Ocoee FL 1934 45 9 1:22:43.5
2 Mark Palamar Trinity FL 134 48 22 1:31:06.1
3 Chuong Vu sorrento FL 2562 46 24 1:31:20.6
4 Kurt Hubbard St. Augustine FL 2137 45 32 1:33:40.5
5 Jay Ulloa New Smyrna Beach FL 2541 48 39 1:35:47.1
6 Peter Formisano Sanford FL 2038 45 40 1:36:22.8
7 Jim Ornstein New York NY 2326 45 58 1:40:00.3
8 Johnny Pettygrue Tampa FL 2360 48 59 1:40:01.6
9 Jay Couture DeLand FL 1948 49 64 1:40:12.7
10 Daniel Kirk saint cloud FL 2188 48 71 1:42:03.0
11 Heikki Mustonen Laihia 2302 47 77 1:42:43.4
12 Tim Reed Fruitland Park FL 2394 45 94 1:45:21.9
13 Shawn Archie Eustis FL 1823 46 106 1:46:58.0
14 Chris Schraer St. Augustine FL 2445 45 120 1:49:08.0
15 Troy Reasoner Apopka FL 2393 45 126 1:49:41.0
16 Rod James Winter Springs FL 2146 46 149 1:53:18.3
17 Francois Domond Fort Lauderdale FL 1990 49 159 1:54:30.5
18 Jeremy Hill St Neots CAM 2120 46 166 1:54:52.1
19 Manuel Steele Tallahassee FL 2493 45 209 1:59:08.8
20 Joe Rainone Windermere FL 2386 45 211 1:59:13.3
21 Bill Culver Kissimmee FL 1957 45 213 1:59:15.0
22 Mark Scott Ocala FL 2448 46 226 2:00:49.2
23 Steven Barnard Smyrna GA 1834 45 243 2:03:02.5
24 Stein Agaberg Debary FL 1808 47 247 2:03:32.8
25 Bob White Mount Dora FL 2581 49 257 2:05:07.7
26 Stanley Dobias Altamonte Springs FL 1987 47 266 2:06:08.4
27 Steve Browne Sanford FL 1884 45 270 2:06:43.2
28 Jack Curtin Oviedo FL 1959 48 282 2:08:10.7
29 Abdel Fourari Mt.Dora FL 2041 49 285 2:08:25.9
30 Glenn Wiener Ormond Beach FL 2588 49 292 2:09:21.6
31 Michael Douglass Orlando FL 1997 47 293 2:09:23.5
32 Andrew Moss Ely CAM 2291 45 294 2:09:30.6
33 Sean Webster Daytona Beach FL 2574 45 329 2:13:33.6
34 Tim Janis Sunnyside NY 2147 48 331 2:14:04.6
35 Michael Rogers Mount Dora FL 2414 48 332 2:14:04.8
36 James Perry Orlando FL 2355 47 336 2:14:22.2
37 Rumen Raev Sanford FL 2384 48 350 2:15:47.8
38 Shane Sherman Eustis FL 2467 48 360 2:17:46.8
39 Pete Alfieris Orlando FL 1815 48 387 2:20:04.6
40 Stephen Rybka Orlando FL 2425 45 401 2:21:27.4
41 Joseph Gregory DELAFIELD WI 2079 49 435 2:25:14.6
42 Clyde Williams Ocala FL 2594 46 446 2:26:04.9
43 Larry Aridas Windermere FL 1824 47 447 2:26:21.3
44 Louis Lique Daytona Beach FL 2227 45 491 2:30:32.0
45 Russell Aaronson Margate FL 1800 45 528 2:36:03.6
46 Jay Gangwisch Oviedo FL 2049 47 532 2:36:40.2
47 Daniel Whiting celebration FL 2583 45 558 2:41:04.5
48 Brendan Ellis Lakeland FL 2013 48 578 2:44:22.4
49 George Soto Cooper City FL 2484 47 606 2:51:34.5
Top

Male 50 to 54

Place Name City Bib No Age Overall Total Time
1 Marc Edwards Blacksburg VA 2010 50 16 1:27:55.7
2 Rogerio Goncalves Rio de Janeiro 2066 53 56 1:39:45.1
3 Keith Kay Durham DUR 2176 50 81 1:43:22.6
4 Tom Squitieri Eustis FL 2490 51 83 1:44:00.5
5 Greg Ramsdell Mount Dora FL 2388 53 88 1:44:40.8
6 Johnny Lane ORLANDO FL 2208 51 93 1:45:21.8
7 Drew Kehr deltona FL 2180 51 116 1:48:21.2
8 Mark Desouza Winter Springs FL 1980 52 117 1:48:35.3
9 Ronald Boddy ocala FL 1868 54 133 1:50:50.4
10 John Mchale Winter Springs FL 2271 50 137 1:51:26.1
11 Wesley Smith Sanford FL 2478 54 152 1:53:35.0
12 Jon Lancaster Mount Dora FL 2206 50 161 1:54:46.9
13 Tim Kelley Orlando FL 2181 50 176 1:55:38.4
14 Sal Saldano Orlando FL 2427 53 179 1:56:21.5
15 Jonathan Supraner Orlando FL 2512 50 193 1:57:22.7
16 Russell Bates Edgewater FL 1839 51 215 1:59:28.2
17 David Jones Ocala FL 1283 51 233 2:01:16.6
18 John Oldham Mount Dora FL 2321 52 234 2:01:25.0
19 Richard Lush Lutz FL 2236 51 245 2:03:14.5
20 Martin Mayo Sorrento FL 2258 53 253 2:04:28.0
21 Richard Charay Mount Dora FL 2625 53 254 2:04:29.3
22 Alan Wilfong Mt Dora FL 2590 52 255 2:04:35.6
23 Raphael Tordini Daytona Beach FL 2532 54 261 2:05:24.0
24 Floyd Thorn Inverness FL 2528 53 265 2:06:00.5
25 David Phillips Tavares FL 2364 53 273 2:06:53.2
26 Brendan Dooley Oviedo FL 1994 51 321 2:12:27.1
27 David Schalm Kelowna BC 2436 53 327 2:12:46.6
28 Mark Blitz Clearwater FL 1862 53 372 2:18:35.8
29 Ed Meyers Mount Dora FL 2280 52 390 2:20:17.6
30 Kevin Ferrick Sanford FL 2026 50 397 2:20:49.8
31 Jack Marcum Ocala FL 2246 50 408 2:21:51.9
32 William Gorman Punta Gorda FL 2072 51 429 2:24:37.4
33 Peter Marriott Orlando FL 2249 50 439 2:25:32.3
34 Dan Hardaway Maitland FL 2097 54 450 2:26:51.5
35 Simon Senturk Tavares FL 2459 52 513 2:33:21.4
36 John Farrell NEWBERRY FL 2021 54 535 2:36:54.1
37 Howard Holt Orlando FL 2132 52 584 2:46:22.6
38 Daniel Suansing Ocoee FL 2509 54 641 3:00:10.7
39 Gene Echols West Hartford CT 2006 52 695 3:41:44.8
Top

Male 55 to 59

Place Name City Bib No Age Overall Total Time
1 Dan Kearns Portland OR 2177 55 13 1:25:02.6
2 Jim Musante New Smyrna Beach FL 2301 57 21 1:29:54.7
3 Tim Jackson Longwood FL 2142 58 53 1:38:48.6
4 David Lehosit Riverview FL 2219 56 54 1:39:03.3
5 Bruce Geise winter park FL 2056 55 78 1:43:00.9
6 George L'Heureux Hernando FL 2225 55 80 1:43:14.8
7 Curtis Wade Mount Dora FL 2563 59 96 1:45:51.6
8 Richard Rubinstein Apopka FL 2417 56 98 1:46:00.9
9 Michael Schmidt Clearwater FL 2439 55 114 1:48:11.7
10 Jeff Zabel Lake Mary FL 2610 56 122 1:49:08.2
11 Steve Handley Eustis FL 2095 57 123 1:49:13.8
12 Bruce Pflueger Longwood FL 2363 57 127 1:49:41.1
13 Charles Wheeler Ocoee FL 2579 56 130 1:50:15.8
14 Mark Ferrari Winter Springs FL 2023 58 148 1:53:18.0
15 Dennis Vaughan palm beach gardens FL 2550 57 151 1:53:30.7
16 Claude Deschenes Gatineau QC 1978 58 157 1:54:18.7
17 Gary Langelier Minneola FL 2210 57 170 1:55:04.5
18 Daniel Teel Winter Park FL 2523 59 172 1:55:07.7
19 Jim Christenson Bradenton FL 1917 55 178 1:55:59.7
20 Cadie Carter Eustis FL 1906 55 186 1:56:39.8
21 Kevin Coulter Martinsburg WV 1946 55 194 1:57:29.0
22 Karl Williams Orlando FL 2593 55 219 1:59:50.4
23 Michael Wicker Orlando FL 2585 59 277 2:07:09.3
24 Tom Wyatt Clermont FL 2603 57 280 2:07:58.2
25 Mark Muething Cincinnati OH 2295 55 308 2:11:12.9
26 Tim Morgan mt dora FL 2632 59 322 2:12:27.4
27 Walter Lysinger largo FL 2239 55 334 2:14:20.6
28 Michael Deichen Orlando FL 1972 56 400 2:21:20.3
29 Michael Godfrey Haines City FL 2062 56 441 2:25:40.3
30 Steve Shelt CHULUOTA FL 2466 56 456 2:27:14.7
31 Earl Cohen BOCA RATON FL 1931 57 460 2:27:56.4
32 Malcolm Yawn Mount Dora FL 2605 57 464 2:27:57.4
33 Rober G.S. Reed Winter Park FL 2395 59 494 2:31:22.4
34 Jay Sandhouse Coral Springs FL 2432 56 519 2:34:01.2
35 Joe Deen Sharpes FL 1970 58 546 2:38:47.0
36 Marcel Spitz Mount Dora FL 2488 56 574 2:43:36.4
37 Michael Cullison mt. Dora FL 1956 56 622 2:54:04.8
Top

Male 60 to 64

Place Name City Bib No Age Overall Total Time
1 Blaine Vermeulen Mount Dora FL 2554 60 102 1:46:19.5
2 Lynn Robinson Ocala FL 2409 60 140 1:51:45.0
3 Norm Spitzig Mount Dora FL 2489 64 146 1:53:10.1
4 Uy Nguyen Eustis FL 2308 64 185 1:56:36.6
5 Seth Elsheimer Winter Park FL 2014 62 195 1:57:31.1
6 Will Hathaway Winter Park FL 2104 60 229 2:01:06.5
7 Frederick Ingerson Port Orange FL 2139 60 260 2:05:19.1
8 James Gullo Williamsburg VA 2083 60 267 2:06:11.6
9 Steve Ball Eustis FL 1830 61 298 2:10:06.8
10 James Messana Grand Island FL 2277 62 351 2:15:51.6
11 Ray Pilon Belleville MI 1178 62 356 2:16:49.2
12 Doug Vogel Poinciana FL 2560 60 412 2:22:03.0
13 Ed Geary Clermont FL 2054 60 422 2:23:32.7
14 Richard Bergholtz Sorrento FL 1851 61 436 2:25:16.7
15 Wayne Mccloskey Edgewater FL 2265 61 437 2:25:28.1
16 Erick Schenkel Orlando FL 2437 62 451 2:26:52.6
17 Michael Parker New Smyrna Beach FL 2334 64 492 2:31:03.7
18 Kenneth Castille Raleigh NC 1909 61 504 2:32:11.6
19 David Rafanowicz Orlando FL 2385 60 527 2:35:38.8
20 Jim Skelly Ormond Beach FL 2470 60 597 2:49:08.1
21 Gary Ketchum Baldwinsville NY 2184 62 618 2:53:16.4
22 John Penny Creston South NL 2347 64 671 3:21:41.8
23 Jim Eisenbrown the villages FL 2012 61 697 4:00:00.0
Top

Male 65 to 69

Place Name City Bib No Age Overall Total Time
1 Dennis Kroskey the villages FL 2195 65 91 1:45:00.6
2 Alec Hawkes Mount Dora FL 2108 67 112 1:47:56.8
3 Peter Mingay Chaunay 2283 65 199 1:58:10.4
4 Steve Evans Longwood FL 2019 66 222 2:00:07.1
5 Julius Aita Davenport GA 1809 69 344 2:15:10.7
6 Gregory Mcgowan Orlando FL 2269 66 406 2:21:41.3
7 Richard Darden Winderemere FL 84 68 420 2:23:23.4
8 John Clark Port Orange FL 1928 69 525 2:35:12.3
9 Charles Cangialosi Leesburg FL 1903 67 640 2:58:07.7
10 Gary Kane Winter Park FL 2172 66 689 3:35:34.3
Top

Male 70 and over

Place Name City Bib No Age Overall Total Time
1 Budd Bettler The Villages FL 1855 70 208 1:59:07.4
2 Alan Hollenbeck Kissimmee FL 2131 70 416 2:22:30.6
3 Coleman Fielder Winter Park FL 2027 73 440 2:25:40.1
Top

Female Open Winners

Place Name City Bib No Age Overall Total Time
1 Nina Kraft Clermont FL 2193 45 12 1:25:00.3
2 Rebecca Clark Howey in the Hils FL 1925 14 27 1:32:54.5
3 Victoria Polk Sanford FL 2372 23 28 1:33:02.7
Top

Female Masters Winners

Place Name City Bib No Age Overall Total Time
1 Terri Rejimbal Tampa FL 2398 46 43 1:37:34.9
Top

Please See Timer

Place Name City Bib No Age Overall Total Time
1 Ailene Edwards Blacksburg VA 2008 13 92 1:45:10.9
2 Jamie Raditic Mehalso Trinity FL 1267 0 206 1:58:33.8
3 Emma Barrett Wesley Chapel FL 1836 13 685 3:34:44.3
Top

Female 16 to 19

Place Name City Bib No Age Overall Total Time
1 Amanda Slattery Tampa FL 2474 18 38 1:35:24.0
2 Jenna Thompson Clearwater FL 2525 18 187 1:56:50.2
3 Caline Mccarthy Fort Myers FL 2262 18 189 1:57:03.8
Top

Female 20 to 24

Place Name City Bib No Age Overall Total Time
1 Alana Kandt Winter Park FL 2170 24 41 1:36:45.3
2 Teale Beckenbach Jacksonville FL 1844 24 47 1:37:56.8
3 Brianne Anderson Winter Park FL 1820 21 60 1:40:04.1
4 Gabrielle Suver Tavares FL 2513 24 107 1:47:21.9
5 Monica Mayer Oviedo FL 2257 24 110 1:47:43.6
6 Brittany L'Heureux Hernando FL 2224 24 184 1:56:33.5
7 Emily Parsons Chicago IL 2336 24 202 1:58:17.1
8 Alia Munley Mundelein IL 2296 21 231 2:01:09.0
9 Caitlin Fortuna Milwaukee WI 2040 23 263 2:05:35.5
10 Alexa Mccarthy Fort Myers FL 2263 20 307 2:11:07.6
11 Kelsey Kohrs Honesdale PA 2190 22 315 2:11:59.9
12 Erin Sullivan Orlando FL 2510 22 316 2:12:01.1
13 Charlotte Grady Longwood FL 2075 22 340 2:14:58.8
14 Marissa Campopiano Apopka FL 1901 21 349 2:15:40.0
15 Maryn Munley Mundelein IL 2297 24 395 2:20:47.8
16 Alyssa Obermiller Mount Dora FL 2319 20 443 2:25:46.9
17 Jeannine Yawn Eustis FL 2604 22 461 2:27:56.6
18 Aissa Dorange Orlando FL 1995 20 472 2:28:45.4
19 Amy Kay Osteen FL 2174 21 509 2:32:49.4
20 Maricel Zamoras Orlando FL 2612 24 511 2:32:56.4
21 Deana Adams Leesburg FL 1805 24 550 2:39:10.0
Top

Female 25 to 29

Place Name City Bib No Age Overall Total Time
1 Karla Christenson sarasota FL 1918 28 236 2:01:34.4
2 Amanda Gianikas Ocala FL 2059 29 246 2:03:20.8
3 Katie Jones Oviedo FL 2163 27 269 2:06:19.3
4 Julia Wicker Orlando FL 2584 29 276 2:07:06.1
5 Faith Doles Winter Garden FL 1989 27 353 2:16:24.6
6 Jessica Long daytona beach shores FL 2231 27 358 2:17:35.4
7 Sirena Gilmore Altamonte Springs FL 2061 25 365 2:18:18.6
8 Kailey Mcnerney Indialantic FL 2273 27 380 2:19:10.9
9 Haslel Toruno Altamonte Springs FL 2533 25 392 2:20:21.4
10 Janelle Culverwell Orlando FL 1958 29 409 2:21:55.8
11 Stacey Zbiciak Ormond Beach FL 2614 25 417 2:23:09.8
12 Kristina Rocafort Miami FL 2412 29 444 2:25:48.7
13 Anastasia Nechaeva Lakeland FL 2307 28 467 2:28:37.4
14 Emily Calvert Cape Canaveral FL 1898 26 470 2:28:43.2
15 Emily Bergholtz Eustis FL 1850 25 475 2:29:05.6
16 Maria Reis Woking 2397 25 493 2:31:20.2
17 Nicole Kay Osteen FL 2175 27 510 2:32:49.6
18 Gina Land Sorrento FL 1155 26 536 2:36:55.0
19 Holly Malcom Winter Springs FL 2244 29 545 2:38:22.0
20 Kalin Norton Altamonte Springs FL 2316 29 576 2:43:45.1
21 Grace Norton Altamonte Springs FL 2315 27 594 2:47:42.6
22 Caitlin Jones Clermont FL 2158 28 598 2:49:39.7
23 Carrie Christian Columbus GA 1919 26 608 2:51:37.0
24 Alex Lizardo Heathrow FL 2228 26 629 2:56:27.9
25 Kayla Frisby Montgomery AL 2045 29 655 3:05:47.4
26 Music Brunetto Clermont FL 1885 26 667 3:14:28.2
Top

Female 30 to 34

Place Name City Bib No Age Overall Total Time
1 Kelsee Gomes Gainesville FL 2065 31 61 1:40:06.5
2 Nicole Gerrish Oviedo FL 2058 31 69 1:41:04.9
3 Sarah Pegram Sanford FL 2343 30 100 1:46:05.6
4 Claudia Pereira bogota 2351 34 101 1:46:17.1
5 Jami Youngmann Weirsdale FL 2608 30 111 1:47:50.1
6 Mariah Jeffery Hillsboro OR 2148 34 119 1:48:39.6
7 Jill Coyne Belleview FL 1951 32 138 1:51:29.5
8 Jamie Noirot Altamonte Springs FL 2313 31 154 1:53:49.4
9 Morgan Timko Bonita Springs FL 2531 32 164 1:54:52.0
10 Stephanie Carli Lake Mary FL 1904 32 169 1:55:04.4
11 Joanna Beckes Titusville FL 1845 33 181 1:56:25.0
12 Monica Showers Grand Island FL 2468 34 188 1:56:54.2
13 Jamie Williams Mount Dora FL 2595 32 190 1:57:04.9
14 Rosie Perkins Orlando FL 2353 32 191 1:57:11.4
15 Jennifer Piacenti Lake Mary FL 2365 32 201 1:58:12.0
16 Jessica Changa Lake Mary FL 1916 34 223 2:00:13.4
17 Niki Kuleza ocala FL 2197 32 238 2:01:46.7
18 Hillery Nicholas Orlando FL 2309 34 250 2:03:55.4
19 Rita Fallateuf Sanford FL 2020 32 251 2:03:58.2
20 Melissa Bragg Richmond HIll GA 1876 34 256 2:04:56.6
21 Lacy Buck South Bend IN 1889 33 262 2:05:25.2
22 Kim Blake Apopka FL 1860 34 286 2:08:26.5
23 Katie Macgregor Ocala FL 2241 31 297 2:10:00.7
24 Carolina Pereira bogota 2350 30 299 2:10:16.8
25 Christine Romm Casselberry FL 2415 31 333 2:14:19.9
26 Tara Degnan Casselberry FL 1971 34 337 2:14:29.3
27 Kim Wheeler Altamonte Springs FL 2578 32 366 2:18:19.2
28 Katie Stutz Tampa FL 2507 32 405 2:21:33.2
29 Alexandra Buchhorn Oviedo FL 1888 30 410 2:21:56.2
30 Danielle Weck Winter Springs FL 2576 30 413 2:22:03.8
31 Danielle Stokes winter garden FL 2496 33 426 2:23:47.3
32 Alyssa Northcutt deleon springs FL 2314 34 427 2:23:52.9
33 Linda Pellosie mount dora FL 2345 33 442 2:25:43.2
34 Rebecca Uhlir Cordova TN 2540 31 452 2:26:56.8
35 Diana Semidey Kissimmee FL 2457 33 463 2:27:57.3
36 Jenifer Mcclelland Sebring FL 2264 34 474 2:29:02.7
37 Aubrey Thompson Altamonte Springs FL 2526 32 477 2:29:12.8
38 Yari Rivera Sanford FL 2406 33 480 2:29:17.7
39 Crystal Schmitz Windermere FL 2442 32 481 2:29:21.4
40 Kacey Edmondson Mount Dora FL 2007 32 487 2:30:21.1
41 Tiffany Harrison Deltona FL 2103 31 489 2:30:24.4
42 Kelly Hard Hobart IN 2096 31 490 2:30:24.5
43 Nicole Stinner Deland FL 2495 31 503 2:32:11.3
44 Ary Bermudez Orlando FL 1854 34 507 2:32:25.3
45 Emily Geleske Mount Dora FL 2057 30 522 2:34:21.4
46 Mary Gangwisch Oviedo FL 2050 30 533 2:36:41.6
47 Fabienne Baiz Altamonte Springs FL 1829 33 534 2:36:42.7
48 Denise Lapierre Clermont FL 2211 34 554 2:40:12.3
49 Jamie Owen Sorrento FL 2329 30 557 2:40:53.2
50 Christina Clark TAVARES FL 1924 34 564 2:42:13.3
51 Lindsay Anderson St. Petersburg FL 1821 30 570 2:43:04.0
52 Erin Colville Oviedo FL 1933 34 572 2:43:20.6
53 Rachel Bouffard Debary FL 1870 33 573 2:43:27.1
54 Leah Moroney Winter Garden FL 2290 32 615 2:52:52.8
55 Megan Sullivan Wesley Chapel FL 2511 31 619 2:53:17.7
56 Katie Dermody Palm Bay FL 1976 33 642 3:00:52.0
57 Jennifer Lowther Sorrento FL 2234 34 643 3:01:23.9
58 Kelly Scott Sanford FL 2450 30 668 3:14:57.9
59 Luli Pascual Lake Mary FL 2338 30 674 3:22:58.2
60 Jennifer Basta Clermont FL 1838 33 676 3:27:04.3
61 Katrina Ferrari Winter springs FL 2025 31 679 3:29:40.6
62 Tamara Ferrari Winter springs FL 2024 31 681 3:29:43.1
63 Erin Jimenez Miami FL 2152 30 698 4:00:00.3
Top

Female 35 to 39

Place Name City Bib No Age Overall Total Time
1 Tammy Marris Daytona Beach FL 2250 39 104 1:46:41.4
2 Kimberly Lochrane Winter Springs FL 2229 35 129 1:50:08.3
3 Sara Devi Pierson Delray Beach FL 2367 35 134 1:51:13.1
4 Stephanie Giffing Mount Dora FL 2060 38 156 1:54:16.1
5 Gina Creek Winter Park FL 1954 35 168 1:55:03.2
6 Carol Montoto Atlanta GA 2631 36 173 1:55:10.5
7 Monica Novack Eustis FL 2318 38 207 1:58:50.4
8 Philipa Gossett Altoona FL 2073 38 230 2:01:06.8
9 Sarah Try Longwood FL 2537 37 232 2:01:13.4
10 Lilliana Guardiola Mount Dora FL 2082 39 268 2:06:15.6
11 Wendy Fitzsimmons Lakeland FL 2033 36 271 2:06:45.5
12 Jess Shaulis Stafford VA 2463 37 272 2:06:46.3
13 Julia Accardo West palm beach FL 1802 36 275 2:07:00.4
14 Emily Jones lady lake FL 2156 38 291 2:09:04.6
15 Michelle Reynolds Edgewater FL 2401 37 301 2:10:26.3
16 Gidget Zook Orange City FL 2616 39 306 2:10:58.5
17 Megan Venning Apopka FL 2553 36 326 2:12:46.1
18 Aliza Styles Sorrento FL 2508 35 330 2:14:02.0
19 Paola Cavallaro Altamonte Springs FL 1911 38 341 2:15:03.9
20 Kelly Vanarsdall Davenport FL 2548 35 345 2:15:17.8
21 Kirsty Boyer DeLand FL 1874 38 357 2:17:12.3
22 Carole Blunk jacksonville FL 1867 36 367 2:18:20.8
23 Jennifer Cook Longwood FL 1938 35 389 2:20:13.5
24 Lissette Deschamps Daytona beach FL 1977 37 402 2:21:27.5
25 Kelly Oprzadek Palm Beach Gardens FL 2324 35 404 2:21:30.1
26 Magdalena Sojka Mount dora FL 2482 38 407 2:21:47.7
27 Lori Waters Clermont FL 2573 38 411 2:21:56.8
28 Shana Windish Longwood FL 2598 39 414 2:22:04.0
29 Kitzzy Aviles San Francisco CA 1827 36 425 2:23:46.6
30 Tricia Portmess Mount Dora FL 2374 35 465 2:28:07.4
31 Kimberly Fawn Yoho Grand island FL 2606 36 466 2:28:31.6
32 Vanessa Lavarez Orlando FL 2212 36 471 2:28:44.7
33 Kendra Roark ALTAMONTE SPRINGS FL 2407 36 476 2:29:08.3
34 Julie Joseph longwood FL 2165 37 478 2:29:12.8
35 Elizabeth Hensley Winter Garden FL 2113 36 488 2:30:22.8
36 Karina Rodriguez Longwood FL 2413 36 500 2:31:43.8
37 Katie Jontes Port Orange FL 2164 37 523 2:34:33.5
38 Weyatta Murray Jacksonville FL 2299 37 538 2:37:03.7
39 Cyndi Quinones Orlando FL 2381 37 540 2:37:14.6
40 Marisa Davis Oviedo FL 1966 39 544 2:38:21.2
41 Meghan Kennedy Jacksonville FL 2183 36 548 2:38:58.8
42 Jennifer Pelham Saint Cloud FL 2344 39 563 2:42:01.9
43 Andrea Norwood longwood FL 2317 37 575 2:43:41.2
44 Jennifer Dennis Winter Garden FL 1974 39 579 2:45:12.4
45 Lisa Mccullough Kissimmee FL 2268 39 595 2:48:00.2
46 Nathalie Ingram Clermont FL 2140 37 601 2:50:14.6
47 Jill Brown Mount Dora FL 1882 37 603 2:50:41.6
48 Angelia Fontes Sanford FL 2036 39 610 2:52:10.6
49 Yesenia Undieme Orlando FL 2544 39 614 2:52:51.5
50 Carmen Mohan Port st Lucie FL 2286 38 616 2:52:54.6
51 Mary Bliven Kingston NH 1864 37 624 2:54:20.4
52 Susan Finnigan Celebration FL 2028 36 627 2:55:29.2
53 Melissa Abato Deland FL 1801 38 628 2:55:47.8
54 Kerri Baumis Longwood FL 1841 39 631 2:56:43.3
55 Allison Brooks Kissimmee FL 1881 38 691 3:37:16.8
56 Robyn Lambert Eustis FL 2201 36 692 3:41:31.6
57 Amy Stone Pierson FL 2498 36 693 3:41:32.6
58 Maggie Denk Sorrento FL 1973 36 694 3:41:33.7
Top

Female 40 to 44

Place Name City Bib No Age Overall Total Time
1 Charlene Lepane Orlando FL 2223 41 49 1:38:23.9
2 Christina Chabrier wesley chapel FL 1914 42 87 1:44:29.3
3 Lisa Yttri Bradenton FL 2609 44 103 1:46:20.7
4 Maggie Gordon Windermere FL 2069 43 124 1:49:20.8
5 Julie Kress Orlando FL 2194 41 125 1:49:22.1
6 Jodie Sturgeon Ormond Beach FL 2506 42 132 1:50:47.3
7 Theresa Mccarthy Grosse ile MI 2261 44 165 1:54:52.1
8 Angel Craig Summerfield FL 1953 42 183 1:56:33.4
9 Cyndi Bergs Merritt Island FL 1852 44 198 1:57:58.8
10 Kathleen Ridall Daytona Beach FL 2403 43 203 1:58:17.9
11 Deanna Johnson Lake Mary FL 2154 41 210 1:59:11.9
12 Monica Williams Las Vegas NV 2592 42 216 1:59:33.5
13 Kim Logan deltona FL 2230 44 220 1:59:57.4
14 Angela Desimone Ocala FL 1979 44 227 2:00:49.8
15 Renee Hardy sorrento FL 2100 41 240 2:02:41.1
16 Jodie Ouellette Coral Springs FL 2328 42 258 2:05:07.7
17 Leigh Ann Valente mt dora FL 2547 44 283 2:08:12.0
18 Laura Fitzgerald Lake Mary FL 2031 41 295 2:09:39.6
19 Michele Palmer Tampa FL 2331 41 302 2:10:28.9
20 Daniele Shearer Mims FL 2465 40 304 2:10:57.2
21 Susan Jenik Casselberry FL 2150 41 318 2:12:06.9
22 Karen Underhill DeLeon Springs FL 2543 42 319 2:12:14.6
23 Ginger Lore Windermere FL 2233 42 328 2:13:26.5
24 Aimee Wiener Ormond Beach FL 2587 44 338 2:14:32.3
25 Vanessa Serafin Oviedo FL 2460 44 347 2:15:23.9
26 Stacy Jemtrud Orlando FL 2149 42 361 2:17:47.0
27 Jodi Moore New Smyrna Beach FL 2289 44 364 2:17:56.0
28 Aletta Barnard Smyrna GA 1833 41 376 2:18:52.3
29 Alex Molina Winter Springs FL 2287 40 377 2:18:52.9
30 Kristina Lambright Humble TX 2203 42 383 2:19:29.7
31 Arbutis Tretter Lady Lake FL 2535 43 393 2:20:25.9
32 Claire Coolbeth Sanibel FL 1939 41 399 2:21:14.9
33 Mica Cyrus ormond beach FL 1960 40 403 2:21:27.9
34 Cindy Lancaster MOUNT DORA FL 2205 44 415 2:22:26.5
35 Shelly Lindner Clermont FL 2226 42 424 2:23:45.0
36 Tracie Donnelly Indialantic FL 1991 43 448 2:26:29.1
37 Bonnie Jules Jacksonville FL 2166 41 449 2:26:49.7
38 Linette Colon Apopka FL 1932 44 457 2:27:20.6
39 Jayme Miller Stuart FL 2281 43 479 2:29:16.4
40 Cheryl Camp sorrento FL 1900 41 486 2:30:15.8
41 Maddy Hubbard Tavares FL 2136 42 497 2:31:40.3
42 Mary Pat Godigkeit Oxford FL 2063 44 514 2:33:29.4
43 Rachelle Napper Tavares FL 2305 41 518 2:33:58.6
44 Maria Bouker Ocala FL 215 42 526 2:35:38.3
45 Kelly Brown Margate FL 1883 44 529 2:36:04.5
46 Maria Lange LAKE MARY FL 2209 41 530 2:36:14.8
47 Heather Reasoner Apopka FL 2392 40 543 2:38:08.8
48 Stacy Mckenzie orlando FL 2272 40 555 2:40:27.3
49 Angela Haines Celebration FL 2092 41 560 2:41:26.6
50 Tracy Turner Clermont FL 2539 44 569 2:42:57.2
51 Amy Nafe Vero Beach FL 2304 41 577 2:44:00.9
52 Kim Bulger Port Orange FL 1892 44 589 2:46:46.0
53 Lavanna Mack Atlanta GA 2242 42 600 2:49:54.9
54 Leah Metelnikow Lakeland FL 2279 42 609 2:52:00.2
55 Monica Acevedo-Soto Cooper City FL 1803 40 617 2:53:08.1
56 Pam Gordon Eustis FL 2071 41 632 2:56:46.9
57 Susan Kane Lakeland FL 2171 43 634 2:57:21.9
58 Julia West Port Orange FL 2577 42 636 2:57:43.9
59 Andrea Bushy So. Daytona FL 1894 43 645 3:02:06.3
60 Charlene Perrone Stuart FL 2354 43 651 3:05:08.3
61 Julie Polakow Port St Lucie FL 2371 40 653 3:05:45.0
62 Shannon Leathlean Titusville FL 2217 42 657 3:07:00.2
63 Trisha Jones Mims FL 2162 43 658 3:07:00.8
64 Jacqulyn Webster Daytona Beach FL 2575 42 664 3:12:34.8
65 Carolyn Wiegman Gotha FL 2586 44 665 3:13:14.6
66 Christine Szymanski Winter Garden FL 2518 40 666 3:13:34.3
67 Michelle Dusseau winter park FL 2004 41 669 3:15:14.4
68 Tracy Reed Altamonte Springs FL 2396 40 675 3:22:59.1
69 Tina Althoff Deltona FL 1818 43 682 3:32:11.4
70 Leona Wilson Deltona FL 2597 40 683 3:32:13.1
71 Carol Barrett Wesley Chapel FL 1835 43 686 3:34:44.7
72 Bj Price Orlando FL 2379 41 690 3:35:35.5
73 Elizabeth Keathley Woodbury TN 2178 42 701 4:12:19.8
Top

Female 45 to 49

Place Name City Bib No Age Overall Total Time
1 Cathy Rash Sanford FL 2390 45 45 1:37:50.6
2 Kirsten Teany Clermont FL 2521 46 82 1:43:24.1
3 Lisa Matschner WINTER SPRINGS FL 2256 46 118 1:48:36.2
4 Jodi Stoner Hudson FL 2499 48 131 1:50:44.3
5 Veronica Sim Melbourne FL 2469 47 147 1:53:13.7
6 Cynthia Spidell Odessa FL 299 47 153 1:53:40.5
7 Rebecca Merritt New Smyrna Beach FL 2276 48 174 1:55:25.3
8 Kim Najjar 1159 45 218 1:59:49.2
9 Elizabeth Porter Mount Dora FL 2373 45 241 2:02:47.1
10 Tanya Prevatt Eustis FL 2378 47 242 2:02:52.4
11 Lori Bissinger Orlando FL 1857 47 249 2:03:54.7
12 Limbani Santos Ocoee FL 2433 49 278 2:07:10.8
13 Diane Bennett Indiantown FL 1848 49 287 2:08:26.6
14 Julie Hogan Apopka FL 2130 46 296 2:09:55.8
15 Cheryl Gregory DELAFIELD WI 2078 48 309 2:11:26.6
16 Kim Sapashe Boca Raton FL 2434 48 310 2:11:26.7
17 Donita Hearns Ocala FL 2111 45 320 2:12:15.8
18 Donna Scott titusville FL 2452 49 359 2:17:46.0
19 Angela Thorn Inverness FL 2527 49 369 2:18:24.3
20 Pamela Hedrick Altamonte Springs FL 2112 47 371 2:18:32.7
21 Christy Teater Lake Mary FL 2522 45 381 2:19:11.0
22 Kimberly Herbstritt Sanford FL 2114 49 391 2:20:20.5
23 Angela Acker Apopka FL 1804 45 396 2:20:48.7
24 Tia Pettygrue Tampa FL 2361 46 398 2:20:58.7
25 Kelly Hunter Cocoa FL 2138 49 419 2:23:18.9
26 Jennifer Ruland Daytona Beach FL 2421 46 421 2:23:25.6
27 Betsy Mccafferty Gainesville FL 2260 49 428 2:24:26.4
28 Clarice Fourari Mt.Dora FL 2042 45 430 2:24:42.5
29 Debra Skopos Celebration FL 2473 47 431 2:24:56.3
30 Terri Blayney Eustis FL 1861 48 438 2:25:31.4
31 Tanya Vohar Valrico FL 2561 46 455 2:27:12.2
32 Sheri-Ann Bates Edgewater FL 1840 48 482 2:29:32.8
33 Shannon Green Grand island FL 2077 45 515 2:33:42.4
34 Erica Kirkland Orlando FL 2189 45 561 2:41:27.1
35 Lisa Edwards Longwood FL 2011 47 567 2:42:55.7
36 Jenny Hoaglund Winter Garden FL 2125 46 581 2:45:23.7
37 Danielle Cooper Winter Garden FL 1942 47 583 2:45:44.0
38 Leah Dobbs Deltona FL 1986 47 588 2:46:41.4
39 Phyllis Petrochko melbourne FL 2359 46 604 2:51:05.4
40 Michele Wallens ORMOND BEACH FL 2567 45 630 2:56:35.7
41 Miriam Soto Fort Lauderdale FL 2485 47 639 2:58:02.5
42 Taraneh Khoshbakhti Palm city FL 2185 48 646 3:03:13.5
43 Ines Murray port st lucie FL 2300 46 650 3:05:08.1
44 Sandra Reynolds Eustis FL 2402 45 656 3:06:34.1
45 Jennifer Alderman Titusville FL 1812 47 660 3:09:35.0
46 Erica Worthington Titusville FL 2601 46 661 3:09:35.2
47 Laurie Uttich Oviedo FL 2546 47 663 3:12:28.0
48 Kate Jacobson Tamarac FL 2145 49 672 3:22:26.9
49 Maria Sanchez Miami FL 2431 46 673 3:22:27.1
50 Janice Makar Wesley Chapel FL 2243 49 687 3:34:44.9
Top

Female 50 to 54

Place Name City Bib No Age Overall Total Time
1 Maureen Powers kissimmee FL 2377 51 115 1:48:11.9
2 Louise Parks Boca Raton FL 2335 52 171 1:55:05.6
3 Dori Vandendriessche Sanford FL 2549 50 175 1:55:31.1
4 Annette Chandler Eustis FL 1915 53 192 1:57:12.7
5 Elizabeth Jones Orlando FL 2161 53 221 2:00:05.2
6 Bonnee Enfinger Lakeland FL 2015 51 228 2:00:56.7
7 Brenda Beard Martinsburg WV 1843 53 237 2:01:40.3
8 Pamela Sabella Tampa FL 2426 52 244 2:03:14.0
9 Patricia Cooper Tavares FL 1943 51 248 2:03:34.8
10 Karen Baxley deland FL 1842 54 252 2:04:02.3
11 Lisa Eakins Margate FL 2005 50 259 2:05:08.0
12 Debi Brightwell Lakeland FL 1879 51 289 2:08:37.9
13 Deanna Frank Palm Coast FL 2044 52 324 2:12:38.2
14 Pam Dickens Odessa FL 1985 53 325 2:12:43.2
15 Linda Lysinger largo FL 2238 54 335 2:14:21.2
16 Mary Zabel Auburndale FL 2611 51 346 2:15:18.4
17 Karen Howard Daytona Beach FL 2134 50 348 2:15:38.7
18 Catherine Burke Eustis FL 1893 51 374 2:18:39.3
19 Sue Arbuckle Orlando FL 1822 51 378 2:18:53.5
20 Alice Bard Winter Springs FL 1832 52 382 2:19:28.1
21 Leslie Peace Grand Island FL 2341 52 432 2:25:02.6
22 Abbie Hearn New Smyrna Beach FL 2109 54 454 2:27:05.2
23 Robyn Rush High Springs FL 2423 51 462 2:27:56.9
24 Carla Calvert Mount Dora FL 1899 53 469 2:28:42.9
25 Patty Connor Okahumpka FL 1935 53 473 2:28:56.0
26 Julianna Dullum Orlando FL 2002 54 484 2:30:00.1
27 Laura Grider Longwood FL 2081 51 495 2:31:35.5
28 Christina Bouwens Oviedo FL 1871 52 498 2:31:40.4
29 Melody Pippin Orlando FL 2370 50 508 2:32:30.1
30 Beth Harmon St. Cloud FL 2101 54 517 2:33:55.1
31 Mary Blitz Clearwater FL 1863 53 524 2:34:47.6
32 Cheri Block clermont FL 1866 52 539 2:37:08.9
33 Debra Hoffen Longwood FL 2128 50 551 2:39:34.4
34 Helen Kwiat Casselberry FL 2200 52 559 2:41:11.0
35 Jill Keating St Petersburg FL 2179 53 571 2:43:04.3
36 Cammie Dewey Orlando FL 1982 53 582 2:45:24.1
37 Susan Holt Orlando FL 2133 51 585 2:46:23.9
38 Sharon Moes Lindenhurst IL 2285 54 590 2:46:47.5
39 Leslie Wilber Sorrento FL 2589 53 613 2:52:44.8
40 Kristi Kay Mt Dora FL 2173 50 623 2:54:04.9
41 Brenda Hamby Gainesville FL 2094 54 644 3:01:52.7
42 Susan Forney Dover FL 2039 50 652 3:05:44.6
43 Dianne O'Neal Orlando FL 2323 50 662 3:10:55.4
44 Linda Pereira Clermont FL 2352 50 680 3:29:41.6
45 Joyce Shanahan Ormond Beach FL 2461 53 688 3:34:52.2
46 Marynida Vega Clermont FL 2552 52 696 3:46:42.2
Top

Female 55 to 59

Place Name City Bib No Age Overall Total Time
1 Nancy Munn Portland OR 2298 55 68 1:40:34.5
2 Brenda Wilson Stuart FL 2596 57 72 1:42:04.2
3 Terri Doheny Clearwater FL 1988 56 109 1:47:37.8
4 Pamela Rucks Okeechobee FL 2418 56 196 1:57:44.5
5 Winifred Begley Eustis FL 1846 58 212 1:59:13.7
6 Michelle Havey Eustis FL 2107 57 314 2:11:46.8
7 Suzanne Leonberg Mars PA 2222 59 323 2:12:38.1
8 Janet Wyatt Clermont FL 2602 57 342 2:15:07.6
9 Babette Addems Longwood FL 1807 55 373 2:18:39.0
10 Sally Hessburg Clermont FL 2119 55 379 2:19:05.6
11 Lorraine Hardaway Maitland FL 2098 57 499 2:31:42.7
12 Kim Smith Orlando FL 2476 59 521 2:34:18.4
13 Bonnie Stout Lake Mary FL 2501 59 531 2:36:27.5
14 Joyce Bono gainesviille FL 1869 57 542 2:37:17.5
15 Lisa Castille Raleigh NC 1910 56 553 2:39:47.2
16 Vicky Countess Longwood FL 1947 59 562 2:41:42.6
17 Julie Schwartz Longwood FL 2447 56 566 2:42:54.9
18 Carol Jackson longwood FL 2143 56 568 2:42:56.2
19 Conne Schroyer'S Daytona beach FL 2446 56 592 2:47:10.4
20 Linda Gowen Deltona FL 2074 59 605 2:51:23.0
21 Shelley Christian Merritt Island FL 1920 58 607 2:51:36.9
22 Paula Walling Middleburg FL 2568 56 611 2:52:13.1
23 Beth Walker Melbourne FL 2566 58 633 2:56:52.7
24 Vicki Lavendol Orlando FL 2213 56 635 2:57:23.0
25 Anna Powell Restoule ON 2375 57 647 3:03:19.4
26 Yolande Ruspini Winter Springs FL 2424 55 670 3:18:13.7
27 Liz Kaehl Port Orange FL 2169 55 684 3:34:44.1
Top

Female 60 to 64

Place Name City Bib No Age Overall Total Time
1 Laurita Samuels Shoreham NY 2429 62 205 1:58:33.4
2 Deborah Umlauf Mount Dora FL 2542 62 384 2:19:32.1
3 Wagner Marilyn Kissimmee FL 2248 64 459 2:27:53.4
4 Melissa Swedberg Orlando FL 2515 60 468 2:28:41.9
5 Gina Waterhouse Fleming Island FL 2572 62 621 2:53:43.0
6 Martha Gullo Williamsburg VA 2084 61 626 2:55:24.4
7 Susan Kelly Fort Myers FL 2182 63 638 2:58:01.7
8 Shirley Penny Creston South NL 2348 62 659 3:08:32.4
9 Molly Brethour Winter Park FL 1878 61 677 3:27:17.9
Top

Female 65 to 69

Place Name City Bib No Age Overall Total Time
1 Holly Alexander Citrus Springs FL 1814 67 158 1:54:29.3
2 Theresa Slifer Ocala FL 2475 67 445 2:26:00.7
3 Nova Fuller Tangerine FL 2047 65 516 2:33:53.0
4 Debbie Stiles St. Louis MO 2494 65 537 2:36:58.5
5 Lauren Stricklen Umatilla FL 2502 69 547 2:38:52.2
6 Millie Harrielson Mount Dora FL 2102 66 587 2:46:40.5
7 Lorraine Sharp New Smyrna Beach FL 2462 65 591 2:46:55.0
8 Carol Albert Altamonte Springs FL 1811 69 612 2:52:28.6
9 Carla Bitterling Orlando FL 1858 68 637 2:57:53.3
10 Colleen Parker New Smyrna Beach FL 2333 67 649 3:04:41.7
11 Nancy Howard the villages FL 2135 66 699 4:00:01.2
Top

Female 70 and over

Place Name City Bib No Age Overall Total Time
1 Becky Brushwood Maitland FL 1886 70 458 2:27:27.1
2 Mary Hall Brandon FL 2093 71 565 2:42:41.1
3 Rosemary Martin Clermont FL 2253 71 596 2:48:09.2